Sauk Centre, MN

6:34 PM CDT on October 13, 2019 (GMT -0500)
Sauk Centre

Weather History for KD39 - August, 2019

Change the Weather History Date:

Wednesday, August 28, 2019

  Actual Average (KGHW) Record (KGHW)
Temperature  
Mean Temperature 58 °F -  
Max Temperature 68 °F 80 °F 95 °F (1969)
Min Temperature 49 °F 55 °F 39 °F (1988)
Degree Days  
Heating Degree Days 6    
Growing Degree Days 8 (Base 50)    
Moisture  
Dew Point 50 °F    
Average Humidity 75    
Maximum Humidity 95    
Minimum Humidity 51    
Precipitation  
Precipitation 0.00 in - - ()
Sea Level Pressure  
Sea Level Pressure 29.89 in    
Wind  
Wind Speed 10 mph ()    
Max Wind Speed 18 mph    
Max Gust Speed 26 mph    
Visibility 9.9 miles    
Events      
Averages and records for this station are not official NWS values.
T = Trace of Precipitation, MM = Missing Value Source: Averaged Metar Reports

Daily Weather History Graph

Daily Weather History Graph

Search for Another Location

Airport or City:

Astronomy

Aug. 28, 2019 Rise Set
Actual Time 6:35 AM CDT 8:05 PM CDT
Civil Twilight 6:04 AM CDT 8:36 PM CDT
Nautical Twilight 5:26 AM CDT 9:13 PM CDT
Astronomical Twilight 4:46 AM CDT 9:54 PM CDT
Moon 3:59 AM CDT (8/28) 7:25 PM CDT (8/28)
Length of Visible Light 14h 31m
Length of Day
13h 29m
Waning Crescent, 4% of the Moon is Illuminated
Aug 28
Waning Crescent
Aug 30
New
Sep 5
First Quarter
Sep 13
Full
Sep 21
Last Quarter

Hourly Weather History & Observations

Time (CDT) Temp. Dew Point Humidity Pressure Visibility Wind Dir Wind Speed Gust Speed Precip Events Conditions
12:15 AM 55.4 °F 52.0 °F 88% 29.82 in 10.0 mi West 10.4 mph - N/A   Overcast
12:37 AM 55.4 °F 51.8 °F 88% 29.82 in 10.0 mi West 11.5 mph 17.3 mph N/A   Overcast
12:55 AM 54.7 °F 51.8 °F 90% 29.82 in 10.0 mi West 8.1 mph - N/A   Overcast
1:15 AM 54.0 °F 51.6 °F 92% 29.82 in 10.0 mi West 10.4 mph - N/A   Scattered Clouds
1:35 AM 53.6 °F 51.1 °F 91% 29.82 in 10.0 mi West 10.4 mph - N/A   Clear
1:36 AM 53.6 °F 51.1 °F 91% 29.82 in 10.0 mi West 10.4 mph - N/A   Clear
1:55 AM 52.7 °F 50.9 °F 94% 29.82 in 10.0 mi West 8.1 mph - N/A   Clear
2:00 AM 52.7 °F 50.9 °F 94% 29.82 in 10.0 mi West 8.1 mph - N/A   Clear
2:19 AM 52.3 °F 51.1 °F 95% 29.83 in 10.0 mi West 6.9 mph - N/A   Clear
2:37 AM 52.7 °F 51.4 °F 95% 29.83 in 10.0 mi West 8.1 mph - N/A   Clear
2:56 AM 52.7 °F 51.4 °F 95% 29.83 in 10.0 mi West 9.2 mph - N/A   Clear
3:16 AM 52.7 °F 50.9 °F 94% 29.83 in 10.0 mi West 9.2 mph - N/A   Clear
3:35 AM 52.0 °F 49.6 °F 92% 29.83 in 10.0 mi West 8.1 mph - N/A   Clear
3:36 AM 52.0 °F 49.6 °F 92% 29.83 in 10.0 mi West 9.2 mph - N/A   Clear
3:58 AM 51.8 °F 49.6 °F 92% 29.84 in 10.0 mi West 10.4 mph - N/A   Clear
4:17 AM 51.8 °F 50.0 °F 94% 29.84 in 10.0 mi West 12.7 mph 17.3 mph N/A   Clear
4:35 AM 51.8 °F 50.0 °F 94% 29.84 in 10.0 mi West 10.4 mph - N/A   Clear
4:56 AM 51.4 °F 49.5 °F 93% 29.85 in 10.0 mi West 10.4 mph - N/A   Clear
5:15 AM 51.1 °F 49.1 °F 93% 29.85 in 10.0 mi West 11.5 mph - N/A   Clear
5:35 AM 50.9 °F 48.4 °F 91% 29.85 in 10.0 mi West 9.2 mph - N/A   Clear
5:39 AM 50.9 °F 48.4 °F 91% 29.85 in 10.0 mi West 10.4 mph - N/A   Clear
5:57 AM 50.9 °F 48.2 °F 90% 29.86 in 10.0 mi West 10.4 mph - N/A   Clear
6:16 AM 50.7 °F 48.0 °F 90% 29.86 in 10.0 mi West 9.2 mph - N/A   Clear
6:35 AM 50.0 °F 47.7 °F 92% 29.87 in 10.0 mi West 9.2 mph - N/A   Clear
6:36 AM 50.0 °F 47.7 °F 92% 29.87 in 10.0 mi West 9.2 mph - N/A   Clear
6:55 AM 49.6 °F 47.5 °F 92% 29.88 in 10.0 mi West 8.1 mph - N/A   Clear
6:56 AM 49.6 °F 47.5 °F 92% 29.88 in 10.0 mi West 9.2 mph - N/A   Clear
7:18 AM 50.2 °F 47.8 °F 92% 29.89 in 10.0 mi West 9.2 mph - N/A   Clear
7:37 AM 50.9 °F 48.2 °F 90% 29.89 in 10.0 mi West 8.1 mph - N/A   Clear
7:55 AM 52.0 °F 48.7 °F 89% 29.89 in 10.0 mi West 9.2 mph - N/A   Clear
7:56 AM 52.0 °F 48.7 °F 89% 29.89 in 10.0 mi West 9.2 mph - N/A   Clear
8:15 AM 52.9 °F 49.1 °F 87% 29.89 in 10.0 mi West 10.4 mph - N/A   Clear
8:16 AM 53.1 °F 49.1 °F 86% 29.89 in 10.0 mi West 10.4 mph - N/A   Clear
8:35 AM 54.5 °F 49.6 °F 84% 29.90 in 10.0 mi West 9.2 mph - N/A   Clear
8:40 AM 54.9 °F 50.0 °F 84% 29.90 in 10.0 mi West 10.4 mph - N/A   Clear
8:57 AM 55.9 °F 50.2 °F 81% 29.90 in 10.0 mi West 12.7 mph 18.4 mph N/A   Clear
9:15 AM 56.3 °F 49.1 °F 77% 29.90 in 4.0 mi West 13.8 mph - N/A   Haze
9:35 AM 57.2 °F 48.9 °F 74% 29.91 in 10.0 mi WNW 15.0 mph 20.7 mph N/A   Clear
9:36 AM 57.2 °F 48.9 °F 74% 29.91 in 10.0 mi West 15.0 mph 20.7 mph N/A   Clear
9:55 AM 58.5 °F 48.9 °F 71% 29.91 in 10.0 mi WNW 12.7 mph 20.7 mph N/A   Clear
9:56 AM 58.5 °F 48.9 °F 71% 29.91 in 10.0 mi WNW 13.8 mph 20.7 mph N/A   Clear
10:18 AM 59.2 °F 48.7 °F 68% 29.91 in 10.0 mi West 17.3 mph 25.3 mph N/A   Clear
10:36 AM 59.9 °F 47.7 °F 64% 29.92 in 10.0 mi West 17.3 mph 25.3 mph N/A   Clear
10:55 AM 60.4 °F 46.8 °F 61% 29.93 in 10.0 mi WNW 15.0 mph 26.5 mph N/A   Clear
11:15 AM 60.8 °F 47.5 °F 62% 29.93 in 10.0 mi WNW 17.3 mph 21.9 mph N/A   Clear
11:16 AM 60.8 °F 47.1 °F 61% 29.93 in 10.0 mi WNW 16.1 mph 21.9 mph N/A   Clear
11:35 AM 61.5 °F 48.2 °F 62% 29.94 in 10.0 mi West 11.5 mph 23.0 mph N/A   Clear
11:40 AM 62.1 °F 48.6 °F 61% 29.94 in 10.0 mi West 17.3 mph 24.2 mph N/A   Clear
11:57 AM 62.6 °F 48.0 °F 59% 29.94 in 10.0 mi West 17.3 mph 23.0 mph N/A   Clear
12:16 PM 62.6 °F 48.0 °F 59% 29.94 in 10.0 mi WNW 16.1 mph 23.0 mph N/A   Clear
12:36 PM 63.3 °F 48.0 °F 57% 29.94 in 10.0 mi West 15.0 mph 20.7 mph N/A   Clear
12:55 PM 64.0 °F 46.4 °F 53% 29.94 in 10.0 mi WNW 13.8 mph 25.3 mph N/A   Clear
12:56 PM 64.2 °F 46.4 °F 52% 29.94 in 10.0 mi WNW 13.8 mph 25.3 mph N/A   Clear
1:15 PM 64.9 °F 46.8 °F 52% 29.94 in 10.0 mi West 16.1 mph 21.9 mph N/A   Clear
1:19 PM 64.6 °F 45.9 °F 51% 29.94 in 10.0 mi West 18.4 mph 25.3 mph N/A   Clear
1:37 PM 64.9 °F 46.8 °F 52% 29.94 in 10.0 mi West 16.1 mph 23.0 mph N/A   Clear
1:55 PM 65.5 °F 47.8 °F 53% 29.94 in 10.0 mi West 18.4 mph 26.5 mph N/A   Clear
2:15 PM 65.8 °F 48.0 °F 53% 29.93 in 10.0 mi WNW 16.1 mph 24.2 mph N/A   Clear
2:16 PM 66.0 °F 47.8 °F 52% 29.93 in 10.0 mi West 15.0 mph 24.2 mph N/A   Clear
2:35 PM 66.2 °F 48.4 °F 53% 29.93 in 10.0 mi West 18.4 mph 26.5 mph N/A   Scattered Clouds
2:36 PM 66.0 °F 48.7 °F 54% 29.93 in 10.0 mi West 17.3 mph 26.5 mph N/A   Clear
2:58 PM 66.7 °F 48.4 °F 52% 29.94 in 10.0 mi West 15.0 mph 21.9 mph N/A   Clear
3:16 PM 67.1 °F 48.6 °F 51% 29.94 in 10.0 mi West 18.4 mph - N/A   Clear
3:35 PM 67.1 °F 49.3 °F 53% 29.93 in 10.0 mi West 12.7 mph 23.0 mph N/A   Clear
3:55 PM 67.3 °F 49.1 °F 52% 29.93 in 10.0 mi West 13.8 mph 18.4 mph N/A   Clear
3:56 PM 67.3 °F 49.1 °F 52% 29.93 in 10.0 mi West 12.7 mph 18.4 mph N/A   Clear
4:16 PM 68.7 °F 50.5 °F 52% 29.93 in 10.0 mi West 16.1 mph 21.9 mph N/A   Scattered Clouds
4:39 PM 68.0 °F 50.4 °F 53% 29.92 in 10.0 mi West 10.4 mph - N/A   Scattered Clouds
4:56 PM 68.2 °F 50.4 °F 53% 29.92 in 10.0 mi West 12.7 mph 21.9 mph N/A   Scattered Clouds
5:15 PM 68.4 °F 50.4 °F 53% 29.91 in 10.0 mi West 10.4 mph 18.4 mph N/A   Scattered Clouds
5:35 PM 67.5 °F 50.4 °F 54% 29.91 in 10.0 mi West 10.4 mph - N/A   Clear
5:55 PM 66.2 °F 50.7 °F 57% 29.91 in 10.0 mi West 10.4 mph - N/A   Clear
5:59 PM 66.4 °F 51.1 °F 58% 29.91 in 10.0 mi West 10.4 mph - N/A   Clear
6:18 PM 67.6 °F 52.0 °F 57% 29.91 in 10.0 mi West 9.2 mph - N/A   Clear
6:36 PM 67.3 °F 51.1 °F 56% 29.90 in 10.0 mi West 10.4 mph - N/A   Clear
6:56 PM 66.4 °F 51.6 °F 59% 29.89 in 10.0 mi West 8.1 mph - N/A   Clear
7:15 PM 65.3 °F 51.8 °F 62% 29.89 in 10.0 mi West 6.9 mph - N/A   Clear
7:16 PM 65.3 °F 51.6 °F 61% 29.89 in 10.0 mi West 6.9 mph - N/A   Clear
7:35 PM 63.5 °F 52.2 °F 67% 29.89 in 10.0 mi WSW 5.8 mph - N/A   Clear
7:39 PM 63.0 °F 52.2 °F 68% 29.89 in 10.0 mi WSW 5.8 mph - N/A   Clear
7:57 PM 61.5 °F 52.2 °F 71% 29.89 in 10.0 mi WSW 4.6 mph - N/A   Clear
8:16 PM 60.4 °F 52.0 °F 74% 29.89 in 10.0 mi Calm Calm - N/A   Clear
8:35 PM 58.1 °F 52.0 °F 80% 29.89 in 10.0 mi Calm Calm - N/A   Clear
8:55 PM 56.7 °F 52.2 °F 85% 29.89 in 10.0 mi Calm Calm - N/A   Clear
8:56 PM 56.7 °F 52.2 °F 85% 29.89 in 10.0 mi Calm Calm - N/A   Clear
9:19 PM 55.9 °F 51.8 °F 86% 29.89 in 10.0 mi Calm Calm - N/A   Clear
9:36 PM 55.4 °F 51.8 °F 88% 29.90 in 10.0 mi Calm Calm - N/A   Clear
9:56 PM 55.2 °F 51.8 °F 88% 29.90 in 10.0 mi Calm Calm - N/A   Clear
10:15 PM 54.0 °F 51.8 °F 92% 29.89 in 10.0 mi SSE 3.5 mph - N/A   Clear
10:16 PM 54.1 °F 51.8 °F 92% 29.89 in 10.0 mi SSE 3.5 mph - N/A   Clear
10:35 PM 53.2 °F 51.3 °F 93% 29.89 in 10.0 mi Calm Calm - N/A   Clear
10:40 PM 53.2 °F 51.1 °F 92% 29.89 in 10.0 mi South 3.5 mph - N/A   Clear
10:57 PM 52.5 °F 50.9 °F 94% 29.88 in 10.0 mi South 3.5 mph - N/A   Clear
11:17 PM 52.7 °F 50.7 °F 93% 29.88 in 10.0 mi SSE 3.5 mph - N/A   Clear
11:37 PM 53.2 °F 51.3 °F 93% 29.87 in 10.0 mi South 3.5 mph - N/A   Clear
11:56 PM 51.8 °F 50.2 °F 94% 29.86 in 10.0 mi South 4.6 mph - N/A   Clear